createdAt,value
2023-04-27T00:02:26.170Z,90.00
2023-04-27T00:04:54.822Z,89.90
2023-04-27T00:07:23.273Z,89.90
2023-04-27T00:09:52.044Z,90.00
2023-04-27T00:12:20.385Z,90.00
2023-04-27T00:14:48.739Z,90.10
2023-04-27T00:17:18.467Z,90.00
2023-04-27T00:19:47.521Z,90.10
2023-04-27T00:22:16.019Z,90.10
2023-04-27T00:24:44.386Z,90.10
2023-04-27T00:27:13.631Z,90.10
2023-04-27T00:29:43.100Z,90.10
2023-04-27T00:32:11.958Z,90.20
2023-04-27T00:34:41.748Z,90.20
2023-04-27T00:37:10.130Z,90.30
2023-04-27T00:39:38.462Z,90.10
2023-04-27T00:42:11.420Z,90.10
2023-04-27T00:44:40.049Z,90.20
2023-04-27T00:47:08.791Z,90.20
2023-04-27T00:49:37.189Z,90.30
2023-04-27T00:52:07.519Z,90.20
2023-04-27T00:54:36.075Z,90.40
2023-04-27T00:57:05.186Z,90.40
2023-04-27T00:59:33.582Z,90.40
2023-04-27T01:02:02.873Z,90.40
2023-04-27T01:04:32.484Z,90.50
2023-04-27T01:07:02.569Z,90.50
2023-04-27T01:09:32.274Z,90.40
2023-04-27T01:12:00.617Z,90.50
2023-04-27T01:14:28.969Z,90.50
2023-04-27T01:16:57.335Z,90.50
2023-04-27T01:19:25.732Z,90.50
2023-04-27T01:21:54.105Z,90.60
2023-04-27T01:24:23.988Z,90.60
2023-04-27T01:26:54.063Z,90.60
2023-04-27T01:29:22.645Z,90.60
2023-04-27T01:31:50.981Z,90.60
2023-04-27T01:34:19.325Z,90.60
2023-04-27T01:36:49.233Z,90.60
2023-04-27T01:39:17.787Z,90.60
2023-04-27T01:41:47.612Z,90.70
2023-04-27T01:44:16.187Z,90.80
2023-04-27T01:46:44.577Z,90.70
2023-04-27T01:49:13.271Z,90.80
2023-04-27T01:51:41.764Z,90.80
2023-04-27T01:54:10.446Z,90.80
2023-04-27T01:56:38.937Z,90.80
2023-04-27T01:59:08.658Z,90.80
2023-04-27T02:01:38.050Z,90.90
2023-04-27T02:04:06.881Z,90.90
2023-04-27T02:06:35.338Z,90.90
2023-04-27T02:09:03.784Z,90.80
2023-04-27T02:11:32.309Z,90.90
2023-04-27T02:14:01.137Z,90.90
2023-04-27T02:16:33.688Z,90.90
2023-04-27T02:19:04.348Z,91.00
2023-04-27T02:21:32.749Z,90.90
2023-04-27T02:24:01.891Z,91.00
2023-04-27T02:26:30.229Z,91.30
2023-04-27T02:28:59.659Z,91.00
2023-04-27T02:31:28.641Z,91.00
2023-04-27T02:33:58.410Z,91.00
2023-04-27T02:36:27.918Z,91.10
2023-04-27T02:38:56.922Z,91.10
2023-04-27T02:41:28.030Z,91.10
2023-04-27T02:43:56.401Z,91.10
2023-04-27T02:46:27.218Z,91.20
2023-04-27T02:48:57.470Z,91.10
2023-04-27T02:51:26.154Z,91.30
2023-04-27T02:53:55.055Z,91.20
2023-04-27T02:56:23.370Z,91.30
2023-04-27T02:58:51.904Z,91.30
2023-04-27T03:01:20.286Z,91.30
2023-04-27T03:03:48.906Z,91.40
2023-04-27T03:06:18.776Z,91.40
2023-04-27T03:08:47.214Z,91.50
2023-04-27T03:11:15.629Z,91.50
2023-04-27T03:13:43.976Z,91.50
2023-04-27T03:16:12.659Z,91.50
2023-04-27T03:18:41.966Z,91.70
2023-04-27T03:21:12.073Z,91.70
2023-04-27T03:23:41.975Z,91.70
2023-04-27T03:26:12.315Z,91.80
2023-04-27T03:28:43.007Z,91.80
2023-04-27T03:31:12.857Z,92.00
2023-04-27T03:33:42.153Z,91.80
2023-04-27T03:36:11.743Z,91.80
2023-04-27T03:38:44.783Z,91.80
2023-04-27T03:41:13.791Z,91.90
2023-04-27T03:43:43.254Z,91.80
2023-04-27T03:46:11.593Z,91.80
2023-04-27T03:48:40.165Z,91.90
2023-04-27T03:51:09.021Z,91.90
2023-04-27T03:53:37.809Z,91.90
2023-04-27T03:56:09.066Z,92.00
2023-04-27T03:58:37.627Z,92.00
2023-04-27T04:01:14.865Z,92.00
2023-04-27T04:03:43.542Z,92.00
2023-04-27T04:06:13.599Z,92.00
2023-04-27T04:08:42.026Z,92.10
2023-04-27T04:11:11.717Z,92.10
2023-04-27T04:13:42.133Z,92.20
2023-04-27T04:16:11.191Z,92.20
2023-04-27T04:18:41.045Z,92.20
2023-04-27T04:21:11.157Z,92.10
2023-04-27T04:23:41.439Z,92.60
2023-04-27T04:26:11.471Z,92.20
2023-04-27T04:28:40.775Z,92.30
2023-04-27T04:31:09.921Z,92.30
2023-04-27T04:33:38.440Z,92.40
2023-04-27T04:36:07.788Z,92.30
2023-04-27T04:38:36.593Z,92.40
2023-04-27T04:41:05.081Z,92.50
2023-04-27T04:43:36.431Z,92.40
2023-04-27T04:46:07.759Z,92.50
2023-04-27T04:48:36.892Z,92.50
2023-04-27T04:51:07.258Z,92.80
2023-04-27T04:53:37.168Z,92.60
2023-04-27T04:56:12.453Z,92.60
2023-04-27T04:58:42.369Z,92.70
2023-04-27T05:01:11.747Z,92.60
2023-04-27T05:03:40.937Z,92.70
2023-04-27T05:06:09.919Z,92.60
2023-04-27T05:08:38.699Z,92.60
2023-04-27T05:11:07.257Z,92.80
2023-04-27T05:13:35.775Z,92.70
2023-04-27T05:16:07.835Z,92.80
2023-04-27T05:18:36.384Z,92.90
2023-04-27T05:21:05.330Z,92.90
2023-04-27T05:23:33.641Z,92.90
2023-04-27T05:26:01.956Z,92.80
2023-04-27T05:28:30.436Z,92.90
2023-04-27T05:30:58.876Z,92.90
2023-04-27T05:33:28.661Z,92.80
2023-04-27T05:35:56.960Z,92.90
2023-04-27T05:38:25.377Z,92.90
2023-04-27T05:40:56.660Z,92.80
2023-04-27T05:43:26.280Z,93.10
2023-04-27T05:45:55.273Z,92.90
2023-04-27T05:48:23.715Z,93.20
2023-04-27T05:51:01.526Z,92.90
2023-04-27T05:53:30.286Z,93.10
2023-04-27T05:55:59.300Z,93.00
2023-04-27T05:58:27.916Z,93.00
2023-04-27T06:00:57.213Z,93.00
2023-04-27T06:03:25.915Z,92.90
2023-04-27T06:06:00.119Z,93.00
2023-04-27T06:08:29.631Z,93.20
2023-04-27T06:10:58.112Z,93.10
2023-04-27T06:13:26.438Z,93.00
2023-04-27T06:15:54.846Z,93.00
2023-04-27T06:18:23.216Z,93.10
2023-04-27T06:20:51.561Z,92.90
2023-04-27T06:23:21.278Z,92.90
2023-04-27T06:25:49.934Z,93.10
2023-04-27T06:28:18.248Z,93.00
2023-04-27T06:30:46.586Z,92.90
2023-04-27T06:33:14.942Z,92.90
2023-04-27T06:35:45.750Z,92.90
2023-04-27T06:38:15.768Z,92.90
2023-04-27T06:40:45.819Z,92.80
2023-04-27T06:43:14.179Z,92.80
2023-04-27T06:45:42.894Z,92.70
2023-04-27T06:48:11.399Z,92.80
2023-04-27T06:50:39.840Z,92.90
2023-04-27T06:53:08.349Z,92.90
2023-04-27T06:55:36.894Z,92.60
2023-04-27T06:58:06.955Z,92.40
2023-04-27T07:00:35.532Z,92.40
2023-04-27T07:03:04.123Z,92.40
2023-04-27T07:05:32.696Z,92.30
2023-04-27T07:08:03.926Z,92.40
2023-04-27T07:10:34.750Z,92.40
2023-04-27T07:13:03.216Z,92.30
2023-04-27T07:15:33.755Z,92.40
2023-04-27T07:18:02.188Z,92.20
2023-04-27T07:20:30.658Z,92.10
2023-04-27T07:22:59.066Z,92.10
2023-04-27T07:25:27.813Z,92.20
2023-04-27T07:27:57.010Z,92.10
2023-04-27T07:30:25.481Z,92.10
2023-04-27T07:32:55.269Z,92.10
2023-04-27T07:35:24.164Z,92.10
2023-04-27T07:37:52.664Z,92.20
2023-04-27T07:40:24.140Z,91.90
2023-04-27T07:42:52.783Z,91.60
2023-04-27T07:45:21.711Z,91.40
2023-04-27T07:47:50.102Z,91.40
2023-04-27T07:50:24.449Z,91.20
2023-04-27T07:52:53.439Z,91.10
2023-04-27T07:55:23.614Z,90.90
2023-04-27T07:57:53.205Z,90.90
2023-04-27T08:00:22.222Z,90.90
2023-04-27T08:02:51.403Z,90.80
2023-04-27T08:05:22.116Z,90.50
2023-04-27T08:07:54.127Z,90.20
2023-04-27T08:10:23.473Z,90.30
2023-04-27T08:12:52.569Z,90.30
2023-04-27T08:15:21.543Z,90.10
2023-04-27T08:17:50.010Z,90.20
2023-04-27T08:20:19.974Z,90.10
2023-04-27T08:22:48.396Z,90.00
2023-04-27T08:25:17.222Z,89.90
2023-04-27T08:27:45.663Z,89.50
2023-04-27T08:30:15.005Z,89.10
2023-04-27T08:32:43.571Z,89.20
2023-04-27T08:35:12.135Z,89.40
2023-04-27T08:37:42.000Z,89.70
2023-04-27T08:40:12.011Z,89.50
2023-04-27T08:42:43.577Z,90.10
2023-04-27T08:45:12.538Z,90.00
2023-04-27T08:47:43.783Z,89.20
2023-04-27T08:50:13.645Z,89.00
2023-04-27T08:52:46.258Z,88.70
2023-04-27T08:55:16.693Z,88.30
2023-04-27T08:57:56.922Z,88.70
2023-04-27T09:00:27.080Z,88.10
2023-04-27T09:02:55.839Z,88.60
2023-04-27T09:05:25.019Z,88.20
2023-04-27T09:08:05.510Z,87.60
2023-04-27T09:10:46.551Z,87.80
2023-04-27T09:13:15.553Z,88.40
2023-04-27T09:15:48.401Z,89.40
2023-04-27T09:18:19.323Z,89.10
2023-04-27T09:20:49.436Z,89.10
2023-04-27T09:23:29.868Z,89.20
2023-04-27T09:25:59.593Z,88.70
2023-04-27T09:28:30.956Z,88.70
2023-04-27T09:31:01.122Z,88.30
2023-04-27T09:33:31.712Z,88.90
2023-04-27T09:36:01.682Z,88.70
2023-04-27T09:38:32.109Z,88.90
2023-04-27T09:41:01.865Z,88.90
2023-04-27T09:43:31.600Z,88.40
2023-04-27T09:46:00.272Z,88.30
2023-04-27T09:48:29.673Z,87.80
2023-04-27T09:50:58.160Z,87.40
2023-04-27T09:53:33.921Z,87.20
2023-04-27T09:56:22.138Z,86.50
2023-04-27T09:59:26.951Z,86.30
2023-04-27T10:02:04.982Z,86.90
2023-04-27T10:05:10.629Z,85.60
2023-04-27T10:07:41.038Z,85.00
2023-04-27T10:10:20.468Z,85.30
2023-04-27T10:12:59.162Z,85.60
2023-04-27T10:15:29.858Z,84.90
2023-04-27T10:18:05.719Z,84.60
2023-04-27T10:20:37.546Z,85.50
2023-04-27T10:23:06.424Z,84.30
2023-04-27T10:25:41.597Z,84.30
2023-04-27T10:28:17.360Z,83.70
2023-04-27T10:30:49.278Z,83.80
2023-04-27T10:33:20.168Z,83.50
2023-04-27T10:35:58.041Z,83.50
2023-04-27T10:38:30.965Z,83.40
2023-04-27T10:41:03.433Z,82.60
2023-04-27T10:43:35.454Z,83.00
2023-04-27T10:46:12.787Z,82.90
2023-04-27T10:48:42.475Z,83.50
2023-04-27T10:51:11.627Z,82.60
2023-04-27T10:53:40.077Z,82.30
2023-04-27T10:56:10.185Z,82.20
2023-04-27T11:01:11.041Z,80.60
2023-04-27T11:03:39.719Z,80.80
2023-04-27T11:06:08.728Z,80.20
2023-04-27T11:08:45.653Z,80.60
2023-04-27T11:11:18.281Z,80.20
2023-04-27T11:13:50.072Z,79.00
2023-04-27T11:16:19.515Z,79.60
2023-04-27T11:18:47.950Z,79.00
2023-04-27T11:21:20.419Z,78.50
2023-04-27T11:23:49.123Z,78.80
2023-04-27T11:26:21.499Z,78.70
2023-04-27T11:29:01.010Z,78.70
2023-04-27T11:31:40.385Z,78.50
2023-04-27T11:34:09.163Z,78.50
2023-04-27T11:36:37.737Z,78.70
2023-04-27T11:39:07.452Z,78.20
2023-04-27T11:41:39.283Z,78.10
2023-04-27T11:44:09.851Z,78.50
2023-04-27T11:46:39.198Z,78.10
2023-04-27T11:49:09.031Z,78.20
2023-04-27T11:51:37.930Z,78.90
2023-04-27T11:54:08.131Z,77.40
2023-04-27T11:56:39.947Z,77.10
2023-04-27T11:59:19.853Z,76.70
2023-04-27T12:01:48.351Z,77.20
2023-04-27T12:04:17.130Z,75.80
2023-04-27T12:06:45.821Z,75.70
2023-04-27T12:09:14.400Z,75.50
2023-04-27T12:11:44.414Z,74.80
2023-04-27T12:14:13.173Z,73.90
2023-04-27T12:16:41.816Z,74.40
2023-04-27T12:19:10.301Z,74.20
2023-04-27T12:21:38.907Z,74.20
2023-04-27T12:24:08.406Z,73.70
2023-04-27T12:26:37.045Z,72.70
2023-04-27T12:29:07.256Z,72.10
2023-04-27T12:31:37.126Z,72.40
2023-04-27T12:34:05.769Z,71.80
2023-04-27T12:36:34.320Z,71.60
2023-04-27T12:39:16.197Z,72.30
2023-04-27T12:41:45.560Z,69.70
2023-04-27T12:44:16.646Z,70.60
2023-04-27T12:46:48.273Z,69.80
2023-04-27T12:49:17.222Z,70.10
2023-04-27T12:51:47.925Z,70.60
2023-04-27T12:54:16.584Z,70.20
2023-04-27T12:56:45.315Z,69.80
2023-04-27T12:59:16.803Z,69.80
2023-04-27T13:01:45.886Z,69.60
2023-04-27T13:04:22.194Z,70.00
2023-04-27T13:06:51.189Z,68.90
2023-04-27T13:09:19.689Z,69.70
2023-04-27T13:11:48.219Z,69.80
2023-04-27T13:14:17.991Z,70.10
2023-04-27T13:16:46.433Z,69.90
2023-04-27T13:19:15.168Z,70.80
2023-04-27T13:21:43.630Z,70.10
2023-04-27T13:24:12.322Z,69.60
2023-04-27T13:26:40.837Z,70.30
2023-04-27T13:29:09.322Z,70.50
2023-04-27T13:31:39.223Z,69.60
2023-04-27T13:34:07.914Z,69.50
2023-04-27T13:36:36.454Z,68.80
2023-04-27T13:39:05.086Z,69.90
2023-04-27T13:41:33.555Z,70.20
2023-04-27T13:44:02.066Z,68.70
2023-04-27T13:46:30.579Z,68.60
2023-04-27T13:49:00.575Z,68.30
2023-04-27T13:51:29.803Z,68.30
2023-04-27T13:53:58.191Z,68.40
2023-04-27T13:56:26.754Z,68.00
2023-04-27T13:58:55.199Z,68.10
2023-04-27T14:01:23.690Z,67.30
2023-04-27T14:03:52.160Z,67.30
2023-04-27T14:06:22.300Z,67.70
2023-04-27T14:08:51.672Z,67.30
2023-04-27T14:11:21.236Z,68.60
2023-04-27T14:13:50.275Z,68.00
2023-04-27T14:16:18.793Z,68.40
2023-04-27T14:18:47.365Z,67.80
2023-04-27T14:21:15.867Z,68.20
2023-04-27T14:23:45.784Z,68.00
2023-04-27T14:26:14.226Z,67.30
2023-04-27T14:28:42.658Z,68.20
2023-04-27T14:31:11.091Z,67.80
2023-04-27T14:33:39.552Z,66.70
2023-04-27T14:36:08.739Z,67.30
2023-04-27T14:38:37.158Z,67.20
2023-04-27T14:41:08.510Z,66.90
2023-04-27T14:43:37.014Z,66.40
2023-04-27T14:46:19.830Z,66.30
2023-04-27T14:48:50.173Z,65.90
2023-04-27T14:51:18.635Z,67.00
2023-04-27T14:53:47.080Z,66.40
2023-04-27T14:56:16.921Z,66.00
2023-04-27T14:58:45.690Z,66.70
2023-04-27T15:01:14.150Z,66.50
2023-04-27T15:03:42.716Z,66.20
2023-04-27T15:06:11.558Z,65.50
2023-04-27T15:08:40.095Z,65.90
2023-04-27T15:11:08.577Z,66.20
2023-04-27T15:13:38.440Z,65.20
2023-04-27T15:16:08.580Z,64.50
2023-04-27T15:18:37.054Z,64.70
2023-04-27T15:21:05.941Z,66.50
2023-04-27T15:23:35.009Z,66.00
2023-04-27T15:26:03.494Z,65.00
2023-04-27T15:28:33.651Z,64.80
2023-04-27T15:31:03.697Z,64.60
2023-04-27T15:33:32.175Z,63.80
2023-04-27T15:36:00.704Z,63.80
2023-04-27T15:38:29.083Z,64.50
2023-04-27T15:40:57.571Z,64.40
2023-04-27T15:43:26.028Z,64.30
2023-04-27T15:45:55.675Z,64.70
2023-04-27T15:48:26.252Z,64.70
2023-04-27T15:50:54.650Z,64.40
2023-04-27T15:53:23.042Z,64.70
2023-04-27T15:55:51.442Z,65.00
2023-04-27T15:58:19.908Z,65.10
2023-04-27T16:00:48.388Z,64.40
2023-04-27T16:03:17.114Z,64.40
2023-04-27T16:05:47.179Z,64.10
2023-04-27T16:08:15.806Z,64.20
2023-04-27T16:10:44.803Z,63.60
2023-04-27T16:13:13.277Z,63.80
2023-04-27T16:15:41.781Z,63.50
2023-04-27T16:18:10.426Z,63.40
2023-04-27T16:20:39.028Z,63.00
2023-04-27T16:23:09.005Z,64.20
2023-04-27T16:25:37.439Z,63.40
2023-04-27T16:28:05.941Z,63.40
2023-04-27T16:30:34.397Z,63.30
2023-04-27T16:33:02.859Z,62.90
2023-04-27T16:35:33.549Z,62.70
2023-04-27T16:38:02.124Z,62.80
2023-04-27T16:40:32.011Z,62.50
2023-04-27T16:43:00.451Z,63.40
2023-04-27T16:45:29.691Z,63.30
2023-04-27T16:47:59.798Z,63.20
2023-04-27T16:50:31.523Z,63.20
2023-04-27T16:53:06.998Z,63.30
2023-04-27T16:55:37.522Z,62.90
2023-04-27T16:58:06.327Z,62.90
2023-04-27T17:00:34.777Z,63.30
2023-04-27T17:03:03.377Z,63.90
2023-04-27T17:05:32.537Z,64.50
2023-04-27T17:08:02.097Z,64.00
2023-04-27T17:10:32.332Z,63.60
2023-04-27T17:13:02.172Z,63.80
2023-04-27T17:15:31.017Z,63.70
2023-04-27T17:17:59.866Z,63.70
2023-04-27T17:20:28.369Z,63.50
2023-04-27T17:22:56.853Z,63.80
2023-04-27T17:25:25.607Z,64.10
2023-04-27T17:27:54.082Z,64.80
2023-04-27T17:30:24.181Z,64.50
2023-04-27T17:32:52.962Z,64.50
2023-04-27T17:35:21.719Z,64.60
2023-04-27T17:37:50.091Z,64.80
2023-04-27T17:40:21.013Z,64.90
2023-04-27T17:42:49.640Z,65.40
2023-04-27T17:45:18.151Z,65.60
2023-04-27T17:47:47.964Z,66.40
2023-04-27T17:50:16.401Z,66.10
2023-04-27T17:52:44.859Z,65.80
2023-04-27T17:55:13.472Z,66.00
2023-04-27T17:57:41.934Z,66.10
2023-04-27T18:00:12.191Z,66.40
2023-04-27T18:02:40.842Z,66.90
2023-04-27T18:05:11.070Z,67.00
2023-04-27T18:07:39.872Z,67.60
2023-04-27T18:10:10.129Z,67.60
2023-04-27T18:12:38.778Z,67.80
2023-04-27T18:15:09.906Z,67.90
2023-04-27T18:17:38.732Z,68.30
2023-04-27T18:20:11.005Z,68.30
2023-04-27T18:22:40.171Z,68.90
2023-04-27T18:25:10.974Z,68.80
2023-04-27T18:27:39.381Z,69.30
2023-04-27T18:30:09.325Z,69.30
2023-04-27T18:32:38.006Z,69.80
2023-04-27T18:35:07.665Z,70.70
2023-04-27T18:37:37.503Z,70.00
2023-04-27T18:40:07.434Z,70.70
2023-04-27T18:42:35.918Z,70.90
2023-04-27T18:45:04.451Z,71.00
2023-04-27T18:47:32.933Z,71.50
2023-04-27T18:50:01.349Z,71.30
2023-04-27T18:52:29.937Z,71.10
2023-04-27T18:54:59.841Z,71.30
2023-04-27T18:57:28.312Z,71.50
2023-04-27T18:59:56.693Z,71.50
2023-04-27T19:02:25.980Z,72.20
2023-04-27T19:05:11.400Z,72.60
2023-04-27T19:07:42.742Z,72.50
2023-04-27T19:10:12.875Z,72.80
2023-04-27T19:12:42.200Z,73.30
2023-04-27T19:15:12.011Z,73.60
2023-04-27T19:17:40.873Z,73.90
2023-04-27T19:20:12.672Z,73.60
2023-04-27T19:22:41.113Z,74.50
2023-04-27T19:25:12.053Z,73.70
2023-04-27T19:27:40.608Z,74.70
2023-04-27T19:30:13.232Z,74.40
2023-04-27T19:32:41.821Z,75.70
2023-04-27T19:35:12.546Z,74.70
2023-04-27T19:37:41.098Z,75.40
2023-04-27T19:40:13.201Z,75.50
2023-04-27T19:42:41.660Z,76.20
2023-04-27T19:45:10.794Z,76.00
2023-04-27T19:47:41.227Z,76.30
2023-04-27T19:50:10.463Z,76.60
2023-04-27T19:52:38.957Z,76.70
2023-04-27T19:55:08.512Z,77.00
2023-04-27T19:57:38.277Z,77.30
2023-04-27T20:00:09.255Z,78.30
2023-04-27T20:02:43.593Z,77.70
2023-04-27T20:05:13.412Z,77.70
2023-04-27T20:07:42.711Z,77.80
2023-04-27T20:10:11.323Z,78.10
2023-04-27T20:12:55.149Z,77.90
2023-04-27T20:15:24.377Z,78.30
2023-04-27T20:17:52.988Z,78.30
2023-04-27T20:20:21.812Z,78.60
2023-04-27T20:22:50.214Z,79.70
2023-04-27T20:25:19.612Z,79.00
2023-04-27T20:27:49.383Z,79.30
2023-04-27T20:30:17.723Z,79.50
2023-04-27T20:32:46.654Z,79.60
2023-04-27T20:35:15.377Z,79.60
2023-04-27T20:37:44.514Z,80.00
2023-04-27T20:40:17.519Z,80.30
2023-04-27T20:42:49.548Z,80.90
2023-04-27T20:45:18.675Z,81.10
2023-04-27T20:47:47.101Z,80.70
2023-04-27T20:50:15.588Z,80.80
2023-04-27T20:52:43.993Z,81.20
2023-04-27T20:55:14.620Z,81.10
2023-04-27T20:57:43.008Z,81.10
2023-04-27T21:00:15.408Z,81.30
2023-04-27T21:02:43.797Z,82.20
2023-04-27T21:05:12.237Z,81.60
2023-04-27T21:07:40.693Z,81.90
2023-04-27T21:10:09.828Z,81.90
2023-04-27T21:12:38.171Z,82.60
2023-04-27T21:15:07.933Z,82.40
2023-04-27T21:17:37.778Z,83.10
2023-04-27T21:20:07.781Z,83.00
2023-04-27T21:22:36.295Z,83.10
2023-04-27T21:25:04.803Z,83.20
2023-04-27T21:27:33.163Z,83.50
2023-04-27T21:30:01.519Z,83.00
2023-04-27T21:32:29.950Z,83.10
2023-04-27T21:34:59.819Z,82.80
2023-04-27T21:37:28.225Z,83.90
2023-04-27T21:39:56.554Z,83.60
2023-04-27T21:42:24.919Z,83.70
2023-04-27T21:44:53.337Z,83.70
2023-04-27T21:47:21.768Z,83.60
2023-04-27T21:49:52.375Z,83.80
2023-04-27T21:52:22.559Z,83.70
2023-04-27T21:54:50.918Z,84.90
2023-04-27T21:57:20.224Z,84.50
2023-04-27T21:59:48.672Z,84.70
2023-04-27T22:02:17.133Z,84.80
2023-04-27T22:04:45.595Z,85.00
2023-04-27T22:07:14.263Z,85.20
2023-04-27T22:09:44.059Z,85.20
2023-04-27T22:12:12.477Z,85.70
2023-04-27T22:14:41.875Z,85.50
2023-04-27T22:17:12.552Z,85.50
2023-04-27T22:19:41.512Z,86.00
2023-04-27T22:22:10.405Z,85.80
2023-04-27T22:24:38.729Z,86.00
2023-04-27T22:27:08.409Z,86.30
2023-04-27T22:29:36.755Z,87.30
2023-04-27T22:32:05.610Z,86.80
2023-04-27T22:34:34.326Z,87.30
2023-04-27T22:37:03.187Z,87.50
2023-04-27T22:39:32.400Z,87.40
2023-04-27T22:42:00.828Z,87.40
2023-04-27T22:44:30.536Z,87.30
2023-04-27T22:47:00.767Z,87.60
2023-04-27T22:49:29.156Z,87.60
2023-04-27T22:51:57.810Z,87.70
2023-04-27T22:54:26.191Z,87.60
2023-04-27T22:56:54.608Z,87.60
2023-04-27T22:59:23.937Z,87.40
2023-04-27T23:01:53.729Z,88.00
2023-04-27T23:04:23.294Z,87.80
2023-04-27T23:06:53.814Z,87.80
2023-04-27T23:09:22.633Z,88.40
2023-04-27T23:11:51.195Z,88.70
2023-04-27T23:14:20.097Z,88.30
2023-04-27T23:16:48.517Z,88.60
2023-04-27T23:19:18.300Z,89.50
2023-04-27T23:21:46.639Z,90.00
2023-04-27T23:24:15.377Z,89.10
2023-04-27T23:26:43.901Z,89.00
2023-04-27T23:29:12.387Z,88.70
2023-04-27T23:31:41.276Z,89.20
2023-04-27T23:34:09.925Z,89.30
2023-04-27T23:36:40.073Z,89.20
2023-04-27T23:39:08.510Z,89.50
2023-04-27T23:41:37.281Z,89.50
2023-04-27T23:44:05.999Z,89.90
2023-04-27T23:46:34.702Z,89.80
2023-04-27T23:49:03.313Z,89.50
2023-04-27T23:51:32.699Z,90.30
2023-04-27T23:54:02.481Z,90.00
2023-04-27T23:56:30.798Z,90.00
2023-04-27T23:58:59.213Z,89.90
